createdAt,value
2023-10-27T00:01:01.004Z,9.4
2023-10-27T00:01:59.681Z,9.4
2023-10-27T00:03:00.454Z,9.3
2023-10-27T00:03:59.245Z,9.3
2023-10-27T00:05:00.038Z,9.3
2023-10-27T00:05:58.786Z,9.3
2023-10-27T00:07:01.111Z,9.3
2023-10-27T00:07:59.821Z,9.3
2023-10-27T00:09:01.075Z,9.3
2023-10-27T00:09:59.730Z,9.3
2023-10-27T00:11:01.091Z,9.3
2023-10-27T00:11:59.938Z,9.3
2023-10-27T00:13:01.442Z,9.3
2023-10-27T00:14:00.106Z,9.3
2023-10-27T00:14:58.835Z,9.3
2023-10-27T00:16:02.752Z,9.3
2023-10-27T00:17:01.031Z,9.3
2023-10-27T00:17:59.738Z,9.3
2023-10-27T00:19:01.179Z,9.3
2023-10-27T00:19:59.840Z,9.3
2023-10-27T00:21:06.017Z,9.3
2023-10-27T00:21:59.974Z,9.2
2023-10-27T00:22:58.803Z,9.2
2023-10-27T00:24:01.013Z,9.2
2023-10-27T00:24:59.750Z,9.2
2023-10-27T00:26:08.504Z,9.2
2023-10-27T00:27:01.073Z,9.2
2023-10-27T00:27:59.748Z,9.2
2023-10-27T00:29:00.984Z,9.2
2023-10-27T00:30:00.000Z,9.2
2023-10-27T00:31:10.608Z,9.2
2023-10-27T00:31:59.647Z,9.1
2023-10-27T00:33:00.380Z,9.1
2023-10-27T00:33:59.124Z,9.2
2023-10-27T00:34:59.930Z,9.2
2023-10-27T00:36:13.183Z,9.2
2023-10-27T00:36:59.740Z,9.1
2023-10-27T00:38:01.076Z,9.1
2023-10-27T00:38:59.808Z,9.1
2023-10-27T00:40:01.195Z,9.1
2023-10-27T00:41:15.063Z,9.1
2023-10-27T00:42:01.112Z,9
2023-10-27T00:42:59.760Z,9
2023-10-27T00:44:01.178Z,9
2023-10-27T00:44:59.869Z,9
2023-10-27T00:46:00.997Z,9
2023-10-27T00:46:59.764Z,9
2023-10-27T00:48:01.105Z,8.9
2023-10-27T00:48:59.884Z,8.9
2023-10-27T00:50:01.220Z,8.9
2023-10-27T00:50:59.886Z,8.9
2023-10-27T00:52:01.015Z,8.9
2023-10-27T00:52:59.713Z,8.9
2023-10-27T00:54:00.453Z,8.9
2023-10-27T00:54:59.114Z,8.9
2023-10-27T00:55:59.822Z,8.9
2023-10-27T00:57:01.063Z,8.9
2023-10-27T00:57:59.755Z,8.9
2023-10-27T00:59:01.470Z,8.9
2023-10-27T01:00:00.188Z,8.9
2023-10-27T01:00:58.900Z,8.9
2023-10-27T01:02:00.992Z,8.9
2023-10-27T01:02:59.685Z,8.9
2023-10-27T01:04:00.466Z,8.9
2023-10-27T01:04:59.349Z,8.9
2023-10-27T01:06:00.081Z,8.9
2023-10-27T01:06:58.763Z,8.9
2023-10-27T01:08:01.428Z,8.9
2023-10-27T01:09:00.054Z,8.9
2023-10-27T01:09:58.722Z,8.9
2023-10-27T01:11:01.046Z,8.9
2023-10-27T01:11:59.715Z,8.8
2023-10-27T01:13:01.114Z,8.8
2023-10-27T01:13:59.820Z,8.8
2023-10-27T01:15:01.060Z,8.8
2023-10-27T01:15:59.957Z,8.8
2023-10-27T01:16:58.727Z,8.8
2023-10-27T01:18:01.052Z,8.8
2023-10-27T01:18:59.867Z,8.8
2023-10-27T01:19:58.731Z,8.8
2023-10-27T01:21:00.997Z,8.8
2023-10-27T01:21:59.692Z,8.8
2023-10-27T01:23:01.012Z,8.7
2023-10-27T01:24:00.012Z,8.7
2023-10-27T01:24:58.707Z,8.7
2023-10-27T01:26:01.274Z,8.7
2023-10-27T01:26:59.921Z,8.7
2023-10-27T01:28:01.084Z,8.7
2023-10-27T01:28:59.727Z,8.7
2023-10-27T01:30:01.049Z,8.7
2023-10-27T01:30:59.711Z,8.7
2023-10-27T01:32:00.976Z,8.7
2023-10-27T01:33:00.042Z,8.6
2023-10-27T01:33:58.832Z,8.6
2023-10-27T01:35:01.135Z,8.6
2023-10-27T01:36:00.066Z,8.6
2023-10-27T01:36:58.780Z,8.6
2023-10-27T01:38:00.937Z,8.6
2023-10-27T01:38:59.833Z,8.6
2023-10-27T01:40:01.115Z,8.6
2023-10-27T01:40:59.891Z,8.6
2023-10-27T01:42:01.028Z,8.6
2023-10-27T01:42:59.725Z,8.6
2023-10-27T01:44:01.030Z,8.6
2023-10-27T01:44:59.707Z,8.6
2023-10-27T01:46:01.126Z,8.6
2023-10-27T01:46:59.785Z,8.6
2023-10-27T01:48:01.053Z,8.6
2023-10-27T01:48:59.862Z,8.6
2023-10-27T01:50:01.082Z,8.6
2023-10-27T01:50:59.836Z,8.6
2023-10-27T01:52:00.998Z,8.5
2023-10-27T01:52:59.745Z,8.5
2023-10-27T01:54:01.018Z,8.5
2023-10-27T01:54:59.792Z,8.5
2023-10-27T01:56:00.956Z,8.5
2023-10-27T01:56:59.987Z,8.5
2023-10-27T01:57:58.684Z,8.4
2023-10-27T01:59:01.042Z,8.3
2023-10-27T01:59:59.698Z,8.3
2023-10-27T02:01:01.080Z,8.3
2023-10-27T02:02:03.590Z,8.3
2023-10-27T02:02:59.952Z,8.3
2023-10-27T02:03:58.649Z,8.3
2023-10-27T02:05:01.029Z,8.3
2023-10-27T02:05:59.817Z,8.3
2023-10-27T02:07:06.000Z,8.3
2023-10-27T02:08:00.981Z,8.3
2023-10-27T02:08:59.652Z,8.3
2023-10-27T02:10:00.552Z,8.3
2023-10-27T02:10:59.354Z,8.3
2023-10-27T02:12:08.795Z,8.3
2023-10-27T02:13:00.017Z,8.3
2023-10-27T02:13:58.654Z,8.3
2023-10-27T02:15:00.284Z,8.3
2023-10-27T02:15:58.933Z,8.3
2023-10-27T02:17:09.764Z,8.3
2023-10-27T02:18:00.209Z,8.3
2023-10-27T02:18:59.032Z,8.3
2023-10-27T02:19:59.768Z,8.3
2023-10-27T02:21:00.926Z,8.3
2023-10-27T02:22:12.462Z,8.3
2023-10-27T02:22:59.631Z,8.3
2023-10-27T02:24:00.349Z,8.3
2023-10-27T02:24:59.199Z,8.3
2023-10-27T02:25:59.964Z,8.3
2023-10-27T02:26:58.636Z,8.3
2023-10-27T02:28:01.456Z,8.3
2023-10-27T02:29:58.986Z,8.3
2023-10-27T02:30:59.677Z,8.3
2023-10-27T02:32:01.042Z,8.3
2023-10-27T02:32:59.805Z,8.3
2023-10-27T02:34:01.117Z,8.3
2023-10-27T02:34:59.910Z,8.3
2023-10-27T02:35:58.597Z,8.3
2023-10-27T02:37:00.476Z,8.3
2023-10-27T02:37:59.207Z,8.3
2023-10-27T02:38:59.928Z,8.3
2023-10-27T02:39:58.637Z,8.3
2023-10-27T02:41:00.368Z,8.3
2023-10-27T02:41:59.048Z,8.2
2023-10-27T02:43:00.544Z,8.2
2023-10-27T02:43:59.774Z,8.2
2023-10-27T02:45:00.987Z,8.1
2023-10-27T02:45:59.832Z,8.1
2023-10-27T02:47:01.041Z,8.1
2023-10-27T02:47:59.868Z,8.1
2023-10-27T02:48:58.732Z,8.1
2023-10-27T02:50:01.041Z,8.1
2023-10-27T02:50:59.712Z,8.1
2023-10-27T02:52:00.953Z,8
2023-10-27T02:52:59.710Z,8
2023-10-27T02:54:00.947Z,8.1
2023-10-27T02:54:59.643Z,8.1
2023-10-27T02:56:00.343Z,8.1
2023-10-27T02:56:59.018Z,8.1
2023-10-27T02:57:59.827Z,8.1
2023-10-27T02:59:01.004Z,8.1
2023-10-27T02:59:59.656Z,8.1
2023-10-27T03:01:00.370Z,8.1
2023-10-27T03:01:59.045Z,8.1
2023-10-27T03:03:00.107Z,8.1
2023-10-27T03:03:58.974Z,8.1
2023-10-27T03:04:59.785Z,8.1
2023-10-27T03:06:01.021Z,8.1
2023-10-27T03:06:59.710Z,8.1
2023-10-27T03:08:01.046Z,8.1
2023-10-27T03:08:59.819Z,8.1
2023-10-27T03:10:03.884Z,8.1
2023-10-27T03:11:00.962Z,8.1
2023-10-27T03:11:59.610Z,8.1
2023-10-27T03:13:00.999Z,8.1
2023-10-27T03:13:59.756Z,8.1
2023-10-27T03:15:01.019Z,8.1
2023-10-27T03:15:59.772Z,8.1
2023-10-27T03:17:00.921Z,8.1
2023-10-27T03:17:59.587Z,8.1
2023-10-27T03:19:00.374Z,8.1
2023-10-27T03:19:59.218Z,8.1
2023-10-27T03:20:59.983Z,8.1
2023-10-27T03:21:58.656Z,8.1
2023-10-27T03:23:00.397Z,8.1
2023-10-27T03:23:59.079Z,8.1
2023-10-27T03:24:59.804Z,8.1
2023-10-27T03:26:00.954Z,8.1
2023-10-27T03:26:59.606Z,8.1
2023-10-27T03:28:00.985Z,8.1
2023-10-27T03:28:59.732Z,8.1
2023-10-27T03:30:00.942Z,8
2023-10-27T03:30:59.658Z,8.1
2023-10-27T03:32:00.920Z,8
2023-10-27T03:32:59.684Z,8
2023-10-27T03:34:01.074Z,8
2023-10-27T03:34:59.986Z,8
2023-10-27T03:35:58.757Z,8
2023-10-27T03:37:01.061Z,8
2023-10-27T03:37:59.987Z,8
2023-10-27T03:38:58.614Z,8
2023-10-27T03:40:00.437Z,8
2023-10-27T03:40:59.218Z,8
2023-10-27T03:41:59.949Z,8
2023-10-27T03:42:58.659Z,8
2023-10-27T03:44:01.004Z,8.1
2023-10-27T03:44:59.775Z,8.1
2023-10-27T03:46:00.994Z,8
2023-10-27T03:46:59.678Z,8.1
2023-10-27T03:48:00.784Z,8.1
2023-10-27T03:48:59.611Z,8.1
2023-10-27T03:50:00.781Z,8.1
2023-10-27T03:50:59.520Z,8.1
2023-10-27T03:52:00.189Z,8.1
2023-10-27T03:53:02.678Z,8.1
2023-10-27T03:54:00.315Z,8.1
2023-10-27T03:54:59.269Z,8.1
2023-10-27T03:56:00.143Z,8.1
2023-10-27T03:56:58.928Z,8.1
2023-10-27T03:58:06.555Z,8.1
2023-10-27T03:59:01.138Z,8.1
2023-10-27T03:59:59.882Z,8.1
2023-10-27T04:01:01.082Z,8.1
2023-10-27T04:01:59.788Z,8.1
2023-10-27T04:03:08.445Z,8.1
2023-10-27T04:04:01.088Z,8.1
2023-10-27T04:04:59.952Z,8.1
2023-10-27T04:05:58.726Z,8.1
2023-10-27T04:07:00.463Z,8.1
2023-10-27T04:08:12.339Z,8.1
2023-10-27T04:09:00.141Z,8.1
2023-10-27T04:09:58.852Z,8.1
2023-10-27T04:11:01.104Z,8.1
2023-10-27T04:11:59.738Z,8.1
2023-10-27T04:13:15.115Z,8
2023-10-27T04:13:59.968Z,8
2023-10-27T04:14:58.652Z,8
2023-10-27T04:16:00.307Z,8
2023-10-27T04:16:59.088Z,8
2023-10-27T04:17:59.815Z,8
2023-10-27T04:19:01.071Z,8
2023-10-27T04:19:59.808Z,8
2023-10-27T04:21:01.042Z,8
2023-10-27T04:21:59.719Z,8
2023-10-27T04:23:01.060Z,8
2023-10-27T04:23:59.735Z,8
2023-10-27T04:25:01.192Z,8
2023-10-27T04:25:59.951Z,8
2023-10-27T04:26:58.723Z,8
2023-10-27T04:28:01.010Z,8
2023-10-27T04:28:59.677Z,8
2023-10-27T04:30:00.412Z,8
2023-10-27T04:30:59.110Z,8
2023-10-27T04:31:59.894Z,8
2023-10-27T04:33:01.108Z,8
2023-10-27T04:33:59.925Z,8
2023-10-27T04:35:01.035Z,8
2023-10-27T04:35:59.664Z,8
2023-10-27T04:37:00.328Z,8
2023-10-27T04:37:59.086Z,8
2023-10-27T04:38:59.948Z,8
2023-10-27T04:39:58.628Z,8
2023-10-27T04:41:00.350Z,8
2023-10-27T04:41:59.028Z,8
2023-10-27T04:42:59.834Z,8
2023-10-27T04:44:00.990Z,8
2023-10-27T04:44:59.757Z,8
2023-10-27T04:46:01.041Z,8
2023-10-27T04:46:59.808Z,8
2023-10-27T04:48:01.246Z,8
2023-10-27T04:49:00.026Z,8
2023-10-27T04:49:58.770Z,8
2023-10-27T04:51:01.044Z,8
2023-10-27T04:51:59.758Z,8
2023-10-27T04:53:01.065Z,8
2023-10-27T04:53:59.744Z,8
2023-10-27T04:55:01.091Z,8
2023-10-27T04:55:59.834Z,8
2023-10-27T04:57:01.157Z,8
2023-10-27T04:57:59.873Z,8
2023-10-27T04:59:01.083Z,8
2023-10-27T04:59:59.739Z,8
2023-10-27T05:01:01.035Z,8
2023-10-27T05:01:59.798Z,8
2023-10-27T05:03:00.626Z,8
2023-10-27T05:03:59.528Z,8
2023-10-27T05:05:00.468Z,8
2023-10-27T05:05:59.290Z,8
2023-10-27T05:07:00.121Z,8
2023-10-27T05:07:58.777Z,8
2023-10-27T05:09:00.974Z,7.9
2023-10-27T05:09:59.770Z,7.9
2023-10-27T05:11:01.067Z,7.8
2023-10-27T05:11:59.717Z,7.8
2023-10-27T05:13:01.102Z,7.8
2023-10-27T05:13:59.948Z,7.8
2023-10-27T05:14:58.619Z,7.7
2023-10-27T05:16:00.339Z,7.7
2023-10-27T05:16:59.049Z,7.6
2023-10-27T05:17:59.823Z,7.6
2023-10-27T05:19:01.033Z,7.6
2023-10-27T05:19:59.902Z,7.5
2023-10-27T05:21:01.125Z,7.5
2023-10-27T05:21:59.821Z,7.5
2023-10-27T05:23:00.507Z,7.5
2023-10-27T05:23:59.232Z,7.5
2023-10-27T05:25:00.229Z,7.5
2023-10-27T05:25:59.121Z,7.5
2023-10-27T05:26:59.823Z,7.5
2023-10-27T05:28:01.093Z,7.4
2023-10-27T05:29:00.496Z,7.3
2023-10-27T05:29:59.240Z,7.3
2023-10-27T05:31:00.169Z,7.3
2023-10-27T05:31:58.940Z,7.3
2023-10-27T05:33:01.212Z,7.3
2023-10-27T05:34:01.752Z,7.4
2023-10-27T05:34:59.988Z,7.4
2023-10-27T05:35:58.751Z,7.4
2023-10-27T05:37:01.334Z,7.5
2023-10-27T05:37:59.890Z,7.5
2023-10-27T05:39:05.015Z,7.5
2023-10-27T05:40:01.289Z,7.5
2023-10-27T05:40:59.711Z,7.5
2023-10-27T05:42:00.443Z,7.5
2023-10-27T05:42:59.140Z,7.5
2023-10-27T05:44:07.544Z,7.4
2023-10-27T05:44:59.842Z,7.4
2023-10-27T05:46:01.037Z,7.3
2023-10-27T05:46:59.985Z,7.3
2023-10-27T05:47:58.650Z,7.3
2023-10-27T05:49:10.951Z,7.3
2023-10-27T05:49:59.889Z,7.2
2023-10-27T05:51:01.007Z,7.2
2023-10-27T05:51:59.699Z,7.1
2023-10-27T05:53:01.031Z,7.2
2023-10-27T05:54:13.260Z,7.1
2023-10-27T05:54:59.709Z,7.1
2023-10-27T05:56:01.034Z,7.1
2023-10-27T05:56:59.705Z,7.2
2023-10-27T05:58:00.466Z,7.2
2023-10-27T05:58:59.200Z,7.2
2023-10-27T05:59:59.926Z,7.2
2023-10-27T06:01:00.281Z,7.2
2023-10-27T06:02:11.430Z,7.3
2023-10-27T06:03:00.207Z,7.2
2023-10-27T06:03:59.330Z,7.2
2023-10-27T06:05:00.209Z,7.2
2023-10-27T06:05:58.939Z,7.2
2023-10-27T06:07:01.190Z,7.2
2023-10-27T06:07:59.562Z,7.1
2023-10-27T06:09:00.277Z,7.1
2023-10-27T06:09:59.009Z,7.1
2023-10-27T06:11:00.152Z,7.1
2023-10-27T06:11:58.806Z,7.1
2023-10-27T06:13:00.996Z,7.1
2023-10-27T06:13:59.700Z,7.1
2023-10-27T06:15:01.046Z,7
2023-10-27T06:15:59.784Z,7
2023-10-27T06:17:01.073Z,7
2023-10-27T06:17:59.800Z,7
2023-10-27T06:19:01.183Z,7
2023-10-27T06:20:09.885Z,7
2023-10-27T06:21:00.042Z,7.1
2023-10-27T06:21:58.834Z,7.1
2023-10-27T06:23:01.000Z,7.1
2023-10-27T06:23:59.661Z,7.1
2023-10-27T06:25:01.047Z,7.1
2023-10-27T06:25:59.684Z,7.1
2023-10-27T06:27:01.021Z,7.1
2023-10-27T06:27:59.786Z,7.1
2023-10-27T06:29:01.040Z,7.1
2023-10-27T06:30:00.195Z,7.1
2023-10-27T06:30:58.890Z,7.2
2023-10-27T06:32:01.057Z,7.2
2023-10-27T06:32:59.786Z,7.2
2023-10-27T06:34:00.991Z,7.3
2023-10-27T06:34:59.673Z,7.3
2023-10-27T06:36:01.017Z,7.3
2023-10-27T06:37:01.479Z,7.3
2023-10-27T06:38:00.156Z,7.3
2023-10-27T06:38:58.835Z,7.3
2023-10-27T06:40:01.415Z,7.3
2023-10-27T06:41:00.180Z,7.3
2023-10-27T06:41:58.851Z,7.3
2023-10-27T06:43:01.053Z,7.4
2023-10-27T06:43:59.699Z,7.4
2023-10-27T06:45:01.028Z,7.4
2023-10-27T06:45:59.704Z,7.4
2023-10-27T06:47:01.086Z,7.4
2023-10-27T06:47:59.856Z,7.4
2023-10-27T06:49:01.148Z,7.4
2023-10-27T06:49:59.862Z,7.4
2023-10-27T06:51:00.985Z,7.5
2023-10-27T06:51:59.633Z,7.5
2023-10-27T06:53:03.230Z,7.4
2023-10-27T06:53:59.852Z,7.5
2023-10-27T06:55:01.115Z,7.5
2023-10-27T06:56:00.271Z,7.5
2023-10-27T06:56:58.959Z,7.5
2023-10-27T06:57:59.681Z,7.5
2023-10-27T06:59:00.520Z,7.5
2023-10-27T06:59:59.178Z,7.5
2023-10-27T07:00:59.929Z,7.5
2023-10-27T07:01:58.673Z,7.6
2023-10-27T07:03:01.107Z,7.5
2023-10-27T07:03:59.877Z,7.6
2023-10-27T07:04:58.796Z,7.6
2023-10-27T07:06:01.057Z,7.6
2023-10-27T07:06:59.837Z,7.6
2023-10-27T07:08:01.117Z,7.6
2023-10-27T07:08:59.944Z,7.6
2023-10-27T07:09:58.907Z,7.6
2023-10-27T07:11:01.009Z,7.6
2023-10-27T07:11:59.692Z,7.6
2023-10-27T07:13:01.446Z,7.6
2023-10-27T07:14:02.710Z,7.6
2023-10-27T07:15:01.926Z,7.6
2023-10-27T07:15:59.792Z,7.6
2023-10-27T07:17:01.053Z,7.6
2023-10-27T07:17:59.745Z,7.6
2023-10-27T07:19:01.078Z,7.6
2023-10-27T07:20:06.560Z,7.6
2023-10-27T07:20:59.834Z,7.6
2023-10-27T07:22:01.166Z,7.6
2023-10-27T07:22:59.934Z,7.6
2023-10-27T07:23:58.552Z,7.6
2023-10-27T07:25:07.967Z,7.6
2023-10-27T07:25:59.767Z,7.6
2023-10-27T07:27:01.015Z,7.6
2023-10-27T07:27:59.955Z,7.6
2023-10-27T07:28:58.641Z,7.6
2023-10-27T07:30:11.357Z,7.6
2023-10-27T07:31:00.296Z,7.6
2023-10-27T07:31:58.971Z,7.6
2023-10-27T07:32:59.743Z,7.6
2023-10-27T07:34:01.005Z,7.6
2023-10-27T07:35:13.768Z,7.6
2023-10-27T07:35:59.788Z,7.6
2023-10-27T07:37:01.025Z,7.6
2023-10-27T07:37:59.835Z,7.7
2023-10-27T07:39:01.096Z,7.7
2023-10-27T07:39:59.733Z,7.7
2023-10-27T07:41:00.991Z,7.7
2023-10-27T07:41:59.643Z,7.7
2023-10-27T07:43:00.388Z,7.7
2023-10-27T07:43:59.292Z,7.7
2023-10-27T07:45:01.361Z,7.8
2023-10-27T07:46:00.280Z,7.7
2023-10-27T07:46:58.963Z,7.8
2023-10-27T07:47:59.722Z,7.8
2023-10-27T07:49:01.043Z,7.7
2023-10-27T07:49:59.721Z,7.7
2023-10-27T07:51:00.958Z,7.7
2023-10-27T07:51:59.756Z,7.7
2023-10-27T07:53:01.025Z,7.8
2023-10-27T07:53:59.737Z,7.8
2023-10-27T07:55:01.126Z,7.8
2023-10-27T07:55:59.854Z,7.8
2023-10-27T07:57:00.978Z,7.8
2023-10-27T07:57:59.661Z,7.8
2023-10-27T07:59:00.392Z,7.9
2023-10-27T07:59:59.023Z,7.9
2023-10-27T08:00:59.666Z,8
2023-10-27T08:02:01.656Z,8
2023-10-27T08:03:01.060Z,8
2023-10-27T08:03:59.805Z,8
2023-10-27T08:05:01.038Z,8
2023-10-27T08:05:59.699Z,8
2023-10-27T08:07:01.063Z,8.1
2023-10-27T08:07:59.750Z,8.1
2023-10-27T08:09:01.200Z,8.1
2023-10-27T08:09:59.941Z,8.1
2023-10-27T08:10:58.602Z,8.1
2023-10-27T08:12:00.266Z,8.1
2023-10-27T08:12:58.958Z,8.1
2023-10-27T08:13:59.657Z,8.1
2023-10-27T08:15:00.387Z,8.1
2023-10-27T08:15:59.053Z,8.1
2023-10-27T08:16:59.772Z,8.1
2023-10-27T08:18:01.454Z,8.1
2023-10-27T08:19:00.198Z,8.2
2023-10-27T08:19:59.008Z,8.2
2023-10-27T08:20:59.947Z,8.1
2023-10-27T08:21:58.865Z,8.2
2023-10-27T08:22:59.730Z,8.2
2023-10-27T08:24:01.083Z,8.2
2023-10-27T08:24:59.848Z,8.3
2023-10-27T08:26:00.949Z,8.3
2023-10-27T08:26:59.663Z,8.3
2023-10-27T08:28:00.358Z,8.3
2023-10-27T08:28:59.030Z,8.3
2023-10-27T08:29:59.771Z,8.3
2023-10-27T08:31:00.996Z,8.3
2023-10-27T08:31:59.697Z,8.3
2023-10-27T08:33:01.449Z,8.4
2023-10-27T08:33:59.886Z,8.4
2023-10-27T08:35:01.026Z,8.5
2023-10-27T08:35:59.825Z,8.5
2023-10-27T08:37:01.084Z,8.5
2023-10-27T08:37:59.749Z,8.5
2023-10-27T08:39:01.085Z,8.5
2023-10-27T08:39:59.849Z,8.5
2023-10-27T08:41:01.109Z,8.6
2023-10-27T08:41:59.827Z,8.6
2023-10-27T08:43:00.987Z,8.6
2023-10-27T08:44:11.156Z,8.6
2023-10-27T08:44:59.687Z,8.6
2023-10-27T08:46:00.613Z,8.6
2023-10-27T08:46:59.372Z,8.6
2023-10-27T08:48:00.238Z,8.6
2023-10-27T08:48:59.055Z,8.7
2023-10-27T08:49:59.786Z,8.7
2023-10-27T08:51:04.368Z,8.7
2023-10-27T08:52:00.968Z,8.8
2023-10-27T08:52:59.717Z,8.7
2023-10-27T08:54:01.052Z,8.8
2023-10-27T08:54:59.730Z,8.8
2023-10-27T08:56:06.425Z,8.8
2023-10-27T08:57:00.959Z,8.8
2023-10-27T08:57:59.631Z,8.8
2023-10-27T08:59:00.340Z,8.8
2023-10-27T08:59:59.038Z,8.8
2023-10-27T09:01:09.203Z,8.8
2023-10-27T09:02:00.183Z,8.8
2023-10-27T09:02:58.843Z,8.8
2023-10-27T09:04:01.393Z,8.8
2023-10-27T09:05:00.329Z,8.8
2023-10-27T09:06:11.686Z,8.8
2023-10-27T09:07:00.192Z,8.8
2023-10-27T09:07:58.873Z,8.9
2023-10-27T09:09:00.968Z,8.8
2023-10-27T09:09:59.756Z,8.9
2023-10-27T09:11:15.023Z,8.9
2023-10-27T09:12:02.101Z,8.9
2023-10-27T09:12:59.720Z,9
2023-10-27T09:14:01.056Z,9
2023-10-27T09:14:59.835Z,9
2023-10-27T09:16:01.075Z,9
2023-10-27T09:16:59.702Z,9
2023-10-27T09:18:01.680Z,9
2023-10-27T09:19:01.013Z,9
2023-10-27T09:19:59.667Z,9
2023-10-27T09:21:00.390Z,9
2023-10-27T09:21:59.064Z,9.1
2023-10-27T09:22:59.938Z,9.1
2023-10-27T09:23:58.700Z,9.1
2023-10-27T09:25:01.057Z,9.1
2023-10-27T09:25:59.702Z,9.1
2023-10-27T09:27:01.114Z,9.1
2023-10-27T09:27:59.832Z,9.1
2023-10-27T09:29:01.349Z,9.1
2023-10-27T09:30:00.028Z,9.1
2023-10-27T09:30:59.121Z,9.1
2023-10-27T09:31:58.614Z,9.1
2023-10-27T09:33:00.322Z,9.1
2023-10-27T09:33:59.427Z,9.1
2023-10-27T09:35:00.248Z,9.1
2023-10-27T09:35:58.898Z,9.1
2023-10-27T09:37:01.428Z,9.1
2023-10-27T09:38:00.113Z,9.1
2023-10-27T09:38:58.774Z,9.1
2023-10-27T09:40:01.044Z,9.1
2023-10-27T09:40:59.709Z,9.1
2023-10-27T09:42:04.076Z,9.1
2023-10-27T09:43:00.365Z,9.1
2023-10-27T09:43:59.106Z,9.1
2023-10-27T09:44:59.868Z,9.1
2023-10-27T09:46:01.110Z,9.2
2023-10-27T09:46:59.738Z,9.1
2023-10-27T09:48:01.045Z,9.1
2023-10-27T09:49:14.506Z,9.2
2023-10-27T09:50:00.325Z,9.2
2023-10-27T09:50:59.056Z,9.2
2023-10-27T09:52:00.080Z,9.2
2023-10-27T09:52:58.756Z,9.3
2023-10-27T09:54:01.412Z,9.2
2023-10-27T09:55:12.733Z,9.2
2023-10-27T09:56:00.179Z,9.2
2023-10-27T09:56:58.895Z,9.3
2023-10-27T09:58:00.959Z,9.3
2023-10-27T09:58:59.714Z,9.3
2023-10-27T10:00:00.999Z,9.3
2023-10-27T10:00:59.741Z,9.3
2023-10-27T10:02:01.377Z,9.3
2023-10-27T10:03:00.165Z,9.3
2023-10-27T10:03:58.960Z,9.3
2023-10-27T10:04:59.740Z,9.3
2023-10-27T10:06:01.011Z,9.3
2023-10-27T10:06:59.772Z,9.3
2023-10-27T10:08:00.961Z,9.3
2023-10-27T10:09:01.589Z,9.4
2023-10-27T10:10:00.482Z,9.3
2023-10-27T10:10:59.295Z,9.4
2023-10-27T10:11:59.997Z,9.3
2023-10-27T10:12:58.686Z,9.3
2023-10-27T10:14:01.044Z,9.4
2023-10-27T10:14:59.839Z,9.4
2023-10-27T10:16:01.067Z,9.4
2023-10-27T10:17:00.093Z,9.4
2023-10-27T10:17:58.858Z,9.4
2023-10-27T10:19:01.432Z,9.4
2023-10-27T10:20:00.245Z,9.5
2023-10-27T10:20:58.927Z,9.5
2023-10-27T10:21:59.662Z,9.4
2023-10-27T10:23:00.998Z,9.4
2023-10-27T10:23:59.671Z,9.5
2023-10-27T10:25:00.416Z,9.5
2023-10-27T10:25:59.327Z,9.5
2023-10-27T10:27:00.528Z,9.5
2023-10-27T10:27:59.183Z,9.5
2023-10-27T10:28:59.943Z,9.5
2023-10-27T10:29:58.681Z,9.5
2023-10-27T10:31:01.064Z,9.5
2023-10-27T10:32:03.263Z,9.5
2023-10-27T10:32:59.855Z,9.5
2023-10-27T10:34:01.026Z,9.5
2023-10-27T10:34:59.833Z,9.5
2023-10-27T10:36:01.035Z,9.5
2023-10-27T10:37:05.912Z,9.5
2023-10-27T10:38:00.175Z,9.5
2023-10-27T10:38:58.826Z,9.5
2023-10-27T10:40:01.021Z,9.5
2023-10-27T10:40:59.896Z,9.5
2023-10-27T10:42:09.087Z,9.6
2023-10-27T10:43:01.033Z,9.6
2023-10-27T10:43:59.692Z,9.5
2023-10-27T10:45:01.045Z,9.6
2023-10-27T10:45:59.704Z,9.6
2023-10-27T10:47:12.085Z,9.6
2023-10-27T10:48:01.146Z,9.6
2023-10-27T10:48:59.828Z,9.6
2023-10-27T10:50:01.012Z,9.6
2023-10-27T10:50:59.904Z,9.6
2023-10-27T10:52:16.631Z,9.6
2023-10-27T10:53:00.990Z,9.6
2023-10-27T10:53:59.619Z,9.6
2023-10-27T10:55:00.393Z,9.6
2023-10-27T10:55:59.109Z,9.5
2023-10-27T10:57:00.091Z,9.6
2023-10-27T10:57:58.763Z,9.5
2023-10-27T10:59:01.023Z,9.6
2023-10-27T10:59:59.710Z,9.5
2023-10-27T11:01:01.042Z,9.6
2023-10-27T11:01:59.720Z,9.6
2023-10-27T11:03:01.104Z,9.5
2023-10-27T11:03:59.943Z,9.6
2023-10-27T11:04:58.882Z,9.6
2023-10-27T11:05:59.901Z,9.6
2023-10-27T11:06:58.636Z,9.6
2023-10-27T11:08:00.996Z,9.5
2023-10-27T11:08:59.655Z,9.5
2023-10-27T11:10:00.383Z,9.5
2023-10-27T11:10:59.171Z,9.5
2023-10-27T11:11:59.896Z,9.5
2023-10-27T11:13:01.031Z,9.5
2023-10-27T11:13:59.785Z,9.5
2023-10-27T11:15:01.351Z,9.5
2023-10-27T11:16:00.008Z,9.5
2023-10-27T11:16:58.681Z,9.5
2023-10-27T11:18:00.370Z,9.5
2023-10-27T11:18:59.010Z,9.5
2023-10-27T11:19:59.987Z,9.5
2023-10-27T11:20:58.653Z,9.5
2023-10-27T11:22:00.348Z,9.5
2023-10-27T11:22:59.017Z,9.5
2023-10-27T11:23:59.644Z,9.5
2023-10-27T11:25:00.279Z,9.5
2023-10-27T11:25:58.954Z,9.5
2023-10-27T11:26:59.609Z,9.5
2023-10-27T11:28:00.273Z,9.5
2023-10-27T11:28:59.005Z,9.5
2023-10-27T11:29:59.722Z,9.5
2023-10-27T11:31:01.038Z,9.5
2023-10-27T11:31:59.668Z,9.5
2023-10-27T11:33:01.070Z,9.5
2023-10-27T11:33:59.998Z,9.5
2023-10-27T11:34:59.126Z,9.5
2023-10-27T11:36:00.053Z,9.5
2023-10-27T11:36:58.736Z,9.5
2023-10-27T11:38:00.975Z,9.5
2023-10-27T11:38:59.781Z,9.5
2023-10-27T11:40:00.955Z,9.5
2023-10-27T11:40:59.807Z,9.5
2023-10-27T11:42:00.968Z,9.5
2023-10-27T11:42:59.669Z,9.5
2023-10-27T11:44:01.028Z,9.5
2023-10-27T11:44:59.676Z,9.5
2023-10-27T11:46:01.028Z,9.5
2023-10-27T11:46:59.707Z,9.5
2023-10-27T11:48:01.278Z,9.5
2023-10-27T11:49:00.175Z,9.5
2023-10-27T11:49:58.971Z,9.5
2023-10-27T11:50:59.726Z,9.5
2023-10-27T11:52:01.231Z,9.5
2023-10-27T11:52:59.947Z,9.5
2023-10-27T11:53:58.624Z,9.5
2023-10-27T11:55:00.277Z,9.5
2023-10-27T11:55:58.940Z,9.5
2023-10-27T11:56:59.776Z,9.5
2023-10-27T11:58:01.407Z,9.5
2023-10-27T11:59:00.035Z,9.5
2023-10-27T11:59:58.753Z,9.5
2023-10-27T12:01:01.135Z,9.5
2023-10-27T12:01:59.766Z,9.5
2023-10-27T12:03:01.129Z,9.5
2023-10-27T12:03:59.816Z,9.5
2023-10-27T12:05:03.637Z,9.5
2023-10-27T12:06:00.399Z,9.5
2023-10-27T12:06:59.108Z,9.5
2023-10-27T12:07:59.844Z,9.5
2023-10-27T12:09:00.972Z,9.5
2023-10-27T12:09:59.636Z,9.5
2023-10-27T12:11:00.254Z,9.5
2023-10-27T12:11:58.899Z,9.5
2023-10-27T12:13:02.204Z,9.5
2023-10-27T12:14:00.263Z,9.5
2023-10-27T12:14:58.952Z,9.5
2023-10-27T12:15:59.740Z,9.5
2023-10-27T12:17:01.040Z,9.5
2023-10-27T12:18:05.237Z,9.5
2023-10-27T12:18:59.725Z,9.5
2023-10-27T12:20:01.103Z,9.5
2023-10-27T12:20:59.831Z,9.5
2023-10-27T12:22:01.065Z,9.5
2023-10-27T12:23:07.585Z,9.5
2023-10-27T12:23:59.735Z,9.5
2023-10-27T12:25:00.971Z,9.5
2023-10-27T12:25:59.652Z,9.5
2023-10-27T12:27:00.995Z,9.5
2023-10-27T12:28:10.160Z,9.5
2023-10-27T12:28:59.753Z,9.5
2023-10-27T12:30:01.199Z,9.5
2023-10-27T12:30:59.909Z,9.5
2023-10-27T12:32:01.035Z,9.5
2023-10-27T12:33:12.850Z,9.5
2023-10-27T12:34:00.305Z,9.5
2023-10-27T12:34:59.161Z,9.5
2023-10-27T12:35:59.923Z,9.5
2023-10-27T12:37:01.053Z,9.5
2023-10-27T12:37:59.719Z,9.5
2023-10-27T12:39:02.139Z,9.5
2023-10-27T12:40:00.996Z,9.5
2023-10-27T12:40:59.736Z,9.5
2023-10-27T12:42:00.992Z,9.5
2023-10-27T12:42:59.645Z,9.5
2023-10-27T12:44:00.470Z,9.5
2023-10-27T12:44:59.165Z,9.5
2023-10-27T12:45:59.867Z,9.5
2023-10-27T12:46:58.649Z,9.5
2023-10-27T12:48:00.401Z,9.5
2023-10-27T12:48:59.084Z,9.5
2023-10-27T12:49:59.929Z,9.5
2023-10-27T12:50:58.746Z,9.5
2023-10-27T12:52:00.963Z,9.5
2023-10-27T12:52:59.606Z,9.5
2023-10-27T12:54:00.365Z,9.5
2023-10-27T12:54:59.021Z,9.5
2023-10-27T12:55:59.779Z,9.5
2023-10-27T12:57:00.970Z,9.6
2023-10-27T12:57:59.655Z,9.5
2023-10-27T12:59:01.081Z,9.6
2023-10-27T12:59:59.855Z,9.6
2023-10-27T13:01:03.287Z,9.6
2023-10-27T13:02:00.076Z,9.5
2023-10-27T13:02:58.815Z,9.6
2023-10-27T13:04:01.292Z,9.6
2023-10-27T13:05:00.065Z,9.6
2023-10-27T13:05:58.780Z,9.6
2023-10-27T13:07:01.032Z,9.6
2023-10-27T13:07:59.708Z,9.6
2023-10-27T13:09:01.061Z,9.6
2023-10-27T13:10:00.180Z,9.6
2023-10-27T13:10:58.962Z,9.6
2023-10-27T13:11:59.844Z,9.6
2023-10-27T13:13:01.004Z,9.6
2023-10-27T13:13:59.753Z,9.6
2023-10-27T13:15:01.001Z,9.6
2023-10-27T13:15:59.622Z,9.6
2023-10-27T13:17:00.272Z,9.6
2023-10-27T13:17:59.016Z,9.6
2023-10-27T13:19:00.149Z,9.6
2023-10-27T13:19:58.854Z,9.6
2023-10-27T13:21:01.026Z,9.6
2023-10-27T13:21:59.696Z,9.6
2023-10-27T13:23:00.452Z,9.6
2023-10-27T13:23:59.093Z,9.6
2023-10-27T13:24:59.720Z,9.7
2023-10-27T13:26:01.443Z,9.6
2023-10-27T13:27:00.143Z,9.6
2023-10-27T13:27:59.244Z,9.6
2023-10-27T13:29:00.056Z,9.6
2023-10-27T13:29:58.859Z,9.6
2023-10-27T13:31:01.052Z,9.6
2023-10-27T13:31:59.793Z,9.6
2023-10-27T13:33:01.045Z,9.6
2023-10-27T13:33:59.915Z,9.6
2023-10-27T13:34:58.983Z,9.6
2023-10-27T13:35:59.686Z,9.6
2023-10-27T13:37:00.324Z,9.6
2023-10-27T13:37:58.967Z,9.7
2023-10-27T13:39:05.682Z,9.6
2023-10-27T13:39:59.935Z,9.7
2023-10-27T13:40:58.697Z,9.6
2023-10-27T13:42:00.321Z,9.7
2023-10-27T13:42:59.008Z,9.6
2023-10-27T13:43:59.726Z,9.7
2023-10-27T13:45:00.987Z,9.6
2023-10-27T13:45:59.754Z,9.7
2023-10-27T13:47:01.008Z,9.6
2023-10-27T13:47:59.675Z,9.7
2023-10-27T13:49:01.020Z,9.7
2023-10-27T13:49:59.704Z,9.6
2023-10-27T13:51:01.321Z,9.6
2023-10-27T13:51:59.986Z,9.7
2023-10-27T13:52:58.835Z,9.7
2023-10-27T13:54:03.222Z,9.7